createdAt,value
2022-12-03T00:01:39.798Z,100334.50
2022-12-03T00:04:09.711Z,100325.59
2022-12-03T00:06:39.490Z,100333.59
2022-12-03T00:09:09.296Z,100331.06
2022-12-03T00:11:39.278Z,100332.34
2022-12-03T00:14:11.630Z,100325.66
2022-12-03T00:16:41.387Z,100324.66
2022-12-03T00:19:11.126Z,100335.78
2022-12-03T00:21:41.042Z,100333.75
2022-12-03T00:24:11.860Z,100325.38
2022-12-03T00:26:41.950Z,100326.03
2022-12-03T00:29:14.366Z,100332.09
2022-12-03T00:31:47.095Z,100336.63
2022-12-03T00:34:16.902Z,100328.22
2022-12-03T00:36:46.638Z,100335.78
2022-12-03T00:39:16.334Z,100334.41
2022-12-03T00:41:46.021Z,100331.06
2022-12-03T00:44:18.353Z,100324.16
2022-12-03T00:46:48.082Z,100338.78
2022-12-03T00:49:17.830Z,100330.72
2022-12-03T00:51:47.559Z,100338.13
2022-12-03T00:54:17.442Z,100328.06
2022-12-03T00:56:47.190Z,100326.22
2022-12-03T00:59:19.439Z,100330.31
2022-12-03T01:01:49.157Z,100327.00
2022-12-03T01:04:18.973Z,100328.38
2022-12-03T01:06:48.750Z,100331.06
2022-12-03T01:09:18.452Z,100333.75
2022-12-03T01:11:48.149Z,100329.41
2022-12-03T01:14:22.459Z,100324.63
2022-12-03T01:16:52.276Z,100329.06
2022-12-03T01:19:24.330Z,100330.09
2022-12-03T01:21:55.628Z,100325.72
2022-12-03T01:24:25.531Z,100333.38
2022-12-03T01:26:56.017Z,100325.63
2022-12-03T01:29:29.687Z,100341.25
2022-12-03T01:32:11.884Z,100344.53
2022-12-03T01:34:41.622Z,100330.09
2022-12-03T01:37:11.423Z,100338.25
2022-12-03T01:39:41.266Z,100326.22
2022-12-03T01:42:12.441Z,100326.72
2022-12-03T01:44:45.221Z,100335.78
2022-12-03T01:47:18.594Z,100331.41
2022-12-03T01:49:52.290Z,100329.91
2022-12-03T01:52:26.764Z,100331.09
2022-12-03T01:54:58.620Z,100334.94
2022-12-03T01:57:31.985Z,100336.78
2022-12-03T02:00:07.745Z,100337.47
2022-12-03T02:02:37.865Z,100327.69
2022-12-03T02:05:18.198Z,100331.75
2022-12-03T02:07:48.342Z,100328.19
2022-12-03T02:10:21.296Z,100328.31
2022-12-03T02:12:55.084Z,100324.28
2022-12-03T02:15:28.015Z,100332.31
2022-12-03T02:17:58.650Z,100323.22
2022-12-03T02:20:28.521Z,100321.66
2022-12-03T02:23:06.011Z,100326.13
2022-12-03T02:25:39.587Z,100315.94
2022-12-03T02:28:11.774Z,100322.34
2022-12-03T02:30:42.144Z,100322.69
2022-12-03T02:33:13.189Z,100324.03
2022-12-03T02:35:43.079Z,100327.00
2022-12-03T02:38:16.749Z,100329.19
2022-12-03T02:40:52.157Z,100328.38
2022-12-03T02:43:20.750Z,100325.97
2022-12-03T02:45:53.073Z,100329.03
2022-12-03T02:48:26.321Z,100327.41
2022-12-03T02:50:58.601Z,100333.38
2022-12-03T02:53:32.067Z,100320.69
2022-12-03T02:56:05.586Z,100323.34
2022-12-03T02:58:36.644Z,100319.81
2022-12-03T03:01:07.646Z,100324.03
2022-12-03T03:03:39.551Z,100320.97
2022-12-03T03:06:11.326Z,100321.66
2022-12-03T03:08:42.314Z,100319.31
2022-12-03T03:11:14.968Z,100328.25
2022-12-03T03:13:46.686Z,100334.63
2022-12-03T03:16:16.606Z,100333.44
2022-12-03T03:18:46.604Z,100326.53
2022-12-03T03:21:16.436Z,100324.38
2022-12-03T03:23:46.187Z,100331.41
2022-12-03T03:26:18.980Z,100332.75
2022-12-03T03:28:51.899Z,100335.81
2022-12-03T03:31:25.891Z,100329.09
2022-12-03T03:33:55.783Z,100328.41
2022-12-03T03:36:26.177Z,100327.41
2022-12-03T03:38:56.114Z,100330.09
2022-12-03T03:41:30.730Z,100322.38
2022-12-03T03:44:01.238Z,100322.72
2022-12-03T03:46:33.546Z,100322.19
2022-12-03T03:49:04.209Z,100325.19
2022-12-03T03:51:35.250Z,100312.75
2022-12-03T03:54:06.959Z,100308.03
2022-12-03T03:56:39.863Z,100306.88
2022-12-03T03:59:09.903Z,100306.09
2022-12-03T04:01:39.956Z,100302.84
2022-12-03T04:04:19.933Z,100306.41
2022-12-03T04:06:49.982Z,100301.78
2022-12-03T04:09:19.709Z,100291.97
2022-12-03T04:12:04.480Z,100290.09
2022-12-03T04:14:34.190Z,100284.91
2022-12-03T04:17:04.083Z,100285.59
2022-12-03T04:19:33.850Z,100285.59
2022-12-03T04:22:16.034Z,100287.75
2022-12-03T04:24:45.873Z,100297.50
2022-12-03T04:27:30.646Z,100287.44
2022-12-03T04:30:00.379Z,100288.59
2022-12-03T04:32:42.543Z,100294.66
2022-12-03T04:35:25.360Z,100297.50
2022-12-03T04:37:55.136Z,100291.47
2022-12-03T04:40:37.306Z,100290.47
2022-12-03T04:43:09.569Z,100293.13
2022-12-03T04:45:39.460Z,100284.06
2022-12-03T04:48:09.441Z,100285.41
2022-12-03T04:50:39.170Z,100283.91
2022-12-03T04:53:08.870Z,100288.75
2022-12-03T04:55:38.856Z,100288.44
2022-12-03T04:58:11.273Z,100291.78
2022-12-03T05:00:41.034Z,100278.84
2022-12-03T05:03:10.726Z,100288.25
2022-12-03T05:05:40.465Z,100291.78
2022-12-03T05:08:10.228Z,100283.75
2022-12-03T05:10:40.033Z,100286.22
2022-12-03T05:13:12.275Z,100288.41
2022-12-03T05:15:41.964Z,100280.00
2022-12-03T05:18:11.859Z,100285.75
2022-12-03T05:20:49.820Z,100287.44
2022-12-03T05:23:24.007Z,100280.53
2022-12-03T05:25:53.803Z,100285.09
2022-12-03T05:28:26.100Z,100278.72
2022-12-03T05:30:55.896Z,100294.50
2022-12-03T05:33:25.679Z,100285.56
2022-12-03T05:35:56.705Z,100281.03
2022-12-03T05:38:26.749Z,100280.88
2022-12-03T05:40:56.519Z,100285.09
2022-12-03T05:43:26.249Z,100286.28
2022-12-03T05:45:56.103Z,100274.66
2022-12-03T05:48:25.820Z,100270.97
2022-12-03T05:50:55.478Z,100275.00
2022-12-03T05:53:28.183Z,100275.66
2022-12-03T05:55:57.866Z,100268.97
2022-12-03T05:58:30.132Z,100266.28
2022-12-03T06:00:59.973Z,100271.31
2022-12-03T06:03:29.801Z,100264.56
2022-12-03T06:05:59.582Z,100266.59
2022-12-03T06:08:29.438Z,100268.47
2022-12-03T06:10:59.133Z,100265.59
2022-12-03T06:13:31.445Z,100255.03
2022-12-03T06:16:01.137Z,100263.53
2022-12-03T06:18:31.261Z,100262.91
2022-12-03T06:21:01.004Z,100266.97
2022-12-03T06:23:30.723Z,100270.28
2022-12-03T06:26:00.483Z,100265.97
2022-12-03T06:28:33.333Z,100274.69
2022-12-03T06:31:03.176Z,100275.66
2022-12-03T06:33:33.178Z,100275.00
2022-12-03T06:36:02.842Z,100271.31
2022-12-03T06:38:32.589Z,100282.91
2022-12-03T06:41:02.344Z,100278.03
2022-12-03T06:43:34.674Z,100275.31
2022-12-03T06:46:04.919Z,100268.97
2022-12-03T06:48:34.678Z,100274.34
2022-12-03T06:51:04.365Z,100264.94
2022-12-03T06:53:34.067Z,100265.75
2022-12-03T06:56:03.849Z,100270.25
2022-12-03T06:58:36.153Z,100265.91
2022-12-03T07:01:06.092Z,100270.13
2022-12-03T07:03:35.790Z,100274.34
2022-12-03T07:06:05.469Z,100262.75
2022-12-03T07:08:35.153Z,100264.59
2022-12-03T07:11:04.821Z,100269.63
2022-12-03T07:13:37.170Z,100258.56
2022-12-03T07:16:07.584Z,100271.31
2022-12-03T07:18:37.397Z,100261.91
2022-12-03T07:21:07.242Z,100264.28
2022-12-03T07:23:37.396Z,100264.09
2022-12-03T07:26:07.434Z,100263.41
2022-12-03T07:28:40.013Z,100265.09
2022-12-03T07:31:09.849Z,100271.66
2022-12-03T07:33:39.597Z,100262.59
2022-12-03T07:36:10.156Z,100258.22
2022-12-03T07:38:40.226Z,100259.22
2022-12-03T07:41:10.084Z,100255.53
2022-12-03T07:43:42.448Z,100249.16
2022-12-03T07:46:14.834Z,100253.16
2022-12-03T07:48:44.573Z,100242.09
2022-12-03T07:51:15.622Z,100249.97
2022-12-03T07:53:45.517Z,100248.31
2022-12-03T07:56:15.207Z,100246.13
2022-12-03T07:58:47.489Z,100248.13
2022-12-03T08:01:17.361Z,100240.59
2022-12-03T08:03:47.131Z,100238.06
2022-12-03T08:06:16.835Z,100234.03
2022-12-03T08:08:46.543Z,100233.66
2022-12-03T08:11:17.138Z,100233.53
2022-12-03T08:13:49.537Z,100238.06
2022-12-03T08:16:21.605Z,100236.41
2022-12-03T08:18:52.606Z,100236.06
2022-12-03T08:21:23.952Z,100234.69
2022-12-03T08:23:53.686Z,100225.25
2022-12-03T08:26:26.069Z,100219.06
2022-12-03T08:28:58.388Z,100225.59
2022-12-03T08:31:33.620Z,100234.31
2022-12-03T08:34:19.393Z,100229.31
2022-12-03T08:36:50.597Z,100229.03
2022-12-03T08:39:33.368Z,100233.03
2022-12-03T08:42:25.963Z,100233.72
2022-12-03T08:44:58.281Z,100229.19
2022-12-03T08:47:28.247Z,100230.50
2022-12-03T08:50:01.380Z,100224.81
2022-12-03T08:52:34.903Z,100226.16
2022-12-03T08:55:33.467Z,100229.31
2022-12-03T08:58:03.562Z,100224.25
2022-12-03T09:00:35.915Z,100222.91
2022-12-03T09:03:05.704Z,100217.38
2022-12-03T09:05:35.459Z,100218.38
2022-12-03T09:08:05.186Z,100221.78
2022-12-03T09:10:35.797Z,100221.22
2022-12-03T09:13:05.516Z,100224.22
2022-12-03T09:15:38.025Z,100220.88
2022-12-03T09:18:08.485Z,100223.78
2022-12-03T09:20:38.522Z,100216.44
2022-12-03T09:23:08.206Z,100219.47
2022-12-03T09:25:38.088Z,100212.88
2022-12-03T09:28:08.674Z,100223.88
2022-12-03T09:30:41.004Z,100215.13
2022-12-03T09:33:10.980Z,100215.03
2022-12-03T09:35:40.692Z,100217.25
2022-12-03T09:38:10.499Z,100219.13
2022-12-03T09:40:41.540Z,100211.34
2022-12-03T09:43:11.409Z,100210.28
2022-12-03T09:45:43.747Z,100210.41
2022-12-03T09:48:15.040Z,100210.34
2022-12-03T09:50:45.240Z,100211.88
2022-12-03T09:53:18.931Z,100202.66
2022-12-03T09:55:49.805Z,100215.94
2022-12-03T09:58:23.138Z,100207.22
2022-12-03T10:00:56.317Z,100209.25
2022-12-03T10:03:30.917Z,100206.31
2022-12-03T10:06:00.773Z,100204.06
2022-12-03T10:08:35.020Z,100203.28
2022-12-03T10:11:04.744Z,100194.13
2022-12-03T10:13:37.306Z,100190.13
2022-12-03T10:16:13.301Z,100182.81
2022-12-03T10:18:48.305Z,100179.41
2022-12-03T10:21:22.445Z,100184.00
2022-12-03T10:23:55.381Z,100183.81
2022-12-03T10:26:42.626Z,100174.91
2022-12-03T10:29:15.847Z,100175.91
2022-12-03T10:31:50.604Z,100174.09
2022-12-03T10:34:27.389Z,100176.47
2022-12-03T10:37:13.565Z,100177.09
2022-12-03T10:39:56.833Z,100172.75
2022-12-03T10:42:27.588Z,100176.03
2022-12-03T10:45:14.646Z,100171.03
2022-12-03T10:48:06.044Z,100169.63
2022-12-03T10:50:37.096Z,100170.31
2022-12-03T10:53:07.374Z,100170.31
2022-12-03T10:55:41.475Z,100168.59
2022-12-03T10:58:20.808Z,100162.38
2022-12-03T11:00:51.002Z,100153.22
2022-12-03T11:03:26.496Z,100152.50
2022-12-03T11:05:57.616Z,100154.19
2022-12-03T11:08:29.510Z,100152.19
2022-12-03T11:11:01.505Z,100146.84
2022-12-03T11:13:47.437Z,100152.09
2022-12-03T11:16:37.914Z,100145.88
2022-12-03T11:19:20.609Z,100131.78
2022-12-03T11:22:27.086Z,100135.34
2022-12-03T11:25:26.959Z,100131.63
2022-12-03T11:28:34.051Z,100131.03
2022-12-03T11:31:09.249Z,100126.06
2022-12-03T11:33:41.256Z,100121.28
2022-12-03T11:36:54.052Z,100127.88
2022-12-03T11:39:55.676Z,100132.44
2022-12-03T11:42:40.735Z,100123.53
2022-12-03T11:45:22.169Z,100117.28
2022-12-03T11:48:06.227Z,100118.22
2022-12-03T11:50:40.324Z,100121.00
2022-12-03T11:53:23.033Z,100115.91
2022-12-03T11:56:06.298Z,100115.38
2022-12-03T11:58:38.311Z,100116.09
2022-12-03T12:01:10.409Z,100116.69
2022-12-03T12:03:45.974Z,100105.78
2022-12-03T12:06:16.572Z,100118.72
2022-12-03T12:09:03.900Z,100113.84
2022-12-03T12:11:35.746Z,100107.94
2022-12-03T12:14:06.626Z,100102.16
2022-12-03T12:16:55.425Z,100104.84
2022-12-03T12:19:33.867Z,100101.28
2022-12-03T12:22:32.309Z,100088.41
2022-12-03T12:25:07.482Z,100094.38
2022-12-03T12:27:45.225Z,100088.59
2022-12-03T12:30:18.049Z,100090.50
2022-12-03T12:32:50.162Z,100089.66
2022-12-03T12:35:22.259Z,100081.22
2022-12-03T12:37:59.791Z,100078.34
2022-12-03T12:40:34.794Z,100078.94
2022-12-03T12:43:13.211Z,100083.22
2022-12-03T12:45:47.071Z,100077.28
2022-12-03T12:48:24.390Z,100084.25
2022-12-03T12:50:59.957Z,100077.69
2022-12-03T12:53:30.949Z,100069.53
2022-12-03T12:56:09.341Z,100072.81
2022-12-03T12:58:39.076Z,100072.97
2022-12-03T13:01:23.395Z,100066.88
2022-12-03T13:03:54.352Z,100065.50
2022-12-03T13:06:28.371Z,100071.91
2022-12-03T13:08:58.567Z,100063.63
2022-12-03T13:11:39.665Z,100070.59
2022-12-03T13:14:17.711Z,100067.88
2022-12-03T13:16:47.940Z,100065.13
2022-12-03T13:19:26.118Z,100065.41
2022-12-03T13:21:57.505Z,100061.38
2022-12-03T13:24:35.918Z,100063.81
2022-12-03T13:27:23.240Z,100060.22
2022-12-03T13:29:57.421Z,100053.53
2022-12-03T13:32:31.181Z,100050.59
2022-12-03T13:35:06.705Z,100044.44
2022-12-03T13:37:36.634Z,100046.72
2022-12-03T13:40:15.156Z,100052.00
2022-12-03T13:42:46.634Z,100050.81
2022-12-03T13:45:34.030Z,100053.28
2022-12-03T13:48:09.190Z,100051.56
2022-12-03T13:50:41.060Z,100048.16
2022-12-03T13:53:22.329Z,100052.66
2022-12-03T13:55:54.536Z,100053.31
2022-12-03T13:58:28.149Z,100048.28
2022-12-03T14:00:57.923Z,100057.97
2022-12-03T14:03:27.667Z,100054.63
2022-12-03T14:05:57.430Z,100045.13
2022-12-03T14:08:27.182Z,100049.75
2022-12-03T14:11:00.475Z,100046.00
2022-12-03T14:13:33.150Z,100047.16
2022-12-03T14:16:03.121Z,100045.41
2022-12-03T14:18:32.837Z,100050.31
2022-12-03T14:21:02.547Z,100040.63
2022-12-03T14:23:32.282Z,100041.09
2022-12-03T14:26:02.029Z,100050.19
2022-12-03T14:28:36.630Z,100051.41
2022-12-03T14:31:06.381Z,100048.84
2022-12-03T14:33:36.080Z,100038.75
2022-12-03T14:36:05.908Z,100045.97
2022-12-03T14:38:37.935Z,100038.25
2022-12-03T14:41:27.888Z,100044.50
2022-12-03T14:44:00.181Z,100044.78
2022-12-03T14:46:29.995Z,100041.00
2022-12-03T14:48:59.706Z,100045.25
2022-12-03T14:51:29.494Z,100038.00
2022-12-03T14:53:59.178Z,100036.81
2022-12-03T14:56:28.962Z,100039.25
2022-12-03T14:59:03.606Z,100035.25
2022-12-03T15:01:33.400Z,100031.38
2022-12-03T15:04:03.406Z,100029.50
2022-12-03T15:06:33.134Z,100043.59
2022-12-03T15:09:03.060Z,100043.50
2022-12-03T15:11:35.658Z,100039.88
2022-12-03T15:14:08.419Z,100044.50
2022-12-03T15:16:38.261Z,100041.81
2022-12-03T15:19:08.125Z,100046.59
2022-12-03T15:21:37.921Z,100041.19
2022-12-03T15:24:08.057Z,100044.19
2022-12-03T15:26:37.752Z,100049.78
2022-12-03T15:29:10.069Z,100051.84
2022-12-03T15:31:39.871Z,100051.38
2022-12-03T15:34:09.693Z,100056.66
2022-12-03T15:36:39.434Z,100058.16
2022-12-03T15:39:09.187Z,100051.09
2022-12-03T15:41:40.117Z,100053.06
2022-12-03T15:44:12.398Z,100048.88
2022-12-03T15:46:42.132Z,100045.00
2022-12-03T15:49:12.147Z,100049.09
2022-12-03T15:51:41.884Z,100044.19
2022-12-03T15:54:12.571Z,100044.50
2022-12-03T15:56:42.563Z,100040.28
2022-12-03T15:59:15.341Z,100040.72
2022-12-03T16:01:45.105Z,100035.25
2022-12-03T16:04:14.828Z,100036.31
2022-12-03T16:06:44.531Z,100034.84
2022-12-03T16:09:14.262Z,100029.78
2022-12-03T16:11:44.158Z,100030.94
2022-12-03T16:14:16.483Z,100034.28
2022-12-03T16:16:46.207Z,100036.13
2022-12-03T16:19:16.068Z,100035.94
2022-12-03T16:21:45.813Z,100041.13
2022-12-03T16:24:15.569Z,100036.94
2022-12-03T16:26:45.300Z,100032.50
2022-12-03T16:29:18.314Z,100024.16
2022-12-03T16:31:48.586Z,100034.28
2022-12-03T16:34:18.293Z,100035.72
2022-12-03T16:36:48.278Z,100040.78
2022-12-03T16:39:18.627Z,100044.81
2022-12-03T16:41:48.413Z,100037.69
2022-12-03T16:44:32.322Z,100038.94
2022-12-03T16:47:03.237Z,100051.22
2022-12-03T16:49:34.201Z,100046.00
2022-12-03T16:52:04.038Z,100050.06
2022-12-03T16:54:33.698Z,100044.44
2022-12-03T16:57:03.440Z,100038.75
2022-12-03T16:59:36.048Z,100038.34
2022-12-03T17:02:05.918Z,100035.94
2022-12-03T17:04:35.750Z,100036.22
2022-12-03T17:07:05.533Z,100036.31
2022-12-03T17:09:35.391Z,100029.28
2022-12-03T17:12:06.119Z,100031.97
2022-12-03T17:14:38.353Z,100031.06
2022-12-03T17:17:09.340Z,100030.34
2022-12-03T17:19:39.128Z,100034.97
2022-12-03T17:22:10.101Z,100029.94
2022-12-03T17:24:39.793Z,100026.16
2022-12-03T17:27:09.533Z,100039.13
2022-12-03T17:29:42.191Z,100037.53
2022-12-03T17:32:11.906Z,100037.47
2022-12-03T17:34:43.177Z,100043.81
2022-12-03T17:37:12.897Z,100041.59
2022-12-03T17:39:42.572Z,100034.66
2022-12-03T17:42:12.302Z,100035.00
2022-12-03T17:44:44.643Z,100027.56
2022-12-03T17:47:14.319Z,100029.38
2022-12-03T17:49:44.037Z,100025.66
2022-12-03T17:52:13.734Z,100038.09
2022-12-03T17:55:09.317Z,100032.13
2022-12-03T17:57:33.175Z,100036.09
2022-12-03T18:00:05.699Z,100028.66
2022-12-03T18:02:42.275Z,100026.22
2022-12-03T18:05:13.543Z,100035.31
2022-12-03T18:07:43.809Z,100036.06
2022-12-03T18:10:14.253Z,100025.69
2022-12-03T18:12:44.004Z,100034.41
2022-12-03T18:15:16.796Z,100018.97
2022-12-03T18:17:46.601Z,100017.59
2022-12-03T18:20:16.355Z,100017.38
2022-12-03T18:22:46.317Z,100026.63
2022-12-03T18:25:18.098Z,100023.41
2022-12-03T18:27:48.420Z,100020.56
2022-12-03T18:30:21.142Z,100031.50
2022-12-03T18:32:51.808Z,100013.25
2022-12-03T18:35:21.553Z,100018.22
2022-12-03T18:37:52.493Z,100019.59
2022-12-03T18:40:27.206Z,100018.75
2022-12-03T18:42:58.489Z,100016.25
2022-12-03T18:45:31.732Z,100025.38
2022-12-03T18:48:01.454Z,100018.09
2022-12-03T18:50:31.230Z,100011.91
2022-12-03T18:53:00.941Z,100009.66
2022-12-03T18:55:35.997Z,99997.13
2022-12-03T18:58:05.717Z,99996.81
2022-12-03T19:00:38.432Z,100000.34
2022-12-03T19:03:09.119Z,99998.78
2022-12-03T19:05:39.360Z,100003.78
2022-12-03T19:08:14.809Z,100005.19
2022-12-03T19:10:45.108Z,100004.78
2022-12-03T19:13:15.048Z,100009.34
2022-12-03T19:15:49.119Z,100012.13
2022-12-03T19:18:18.880Z,100005.59
2022-12-03T19:20:48.574Z,100002.63
2022-12-03T19:23:19.171Z,100002.31
2022-12-03T19:25:58.055Z,100008.34
2022-12-03T19:28:28.235Z,100005.63
2022-12-03T19:31:02.687Z,100008.38
2022-12-03T19:33:33.799Z,99999.25
2022-12-03T19:36:05.346Z,99996.56
2022-12-03T19:38:35.546Z,99990.13
2022-12-03T19:41:07.740Z,99998.31
2022-12-03T19:43:38.638Z,100006.56
2022-12-03T19:46:12.756Z,99999.97
2022-12-03T19:48:43.661Z,99991.53
2022-12-03T19:51:33.711Z,99991.03
2022-12-03T19:54:04.050Z,99995.91
2022-12-03T19:56:33.944Z,99994.00
2022-12-03T19:59:03.750Z,99982.88
2022-12-03T20:01:40.476Z,99989.94
2022-12-03T20:04:11.227Z,99975.75
2022-12-03T20:06:41.729Z,99985.59
2022-12-03T20:09:17.300Z,99986.94
2022-12-03T20:11:47.636Z,99982.50
2022-12-03T20:14:19.302Z,99998.91
2022-12-03T20:16:52.028Z,100004.03
2022-12-03T20:19:22.000Z,99996.75
2022-12-03T20:21:51.676Z,99999.97
2022-12-03T20:24:21.385Z,99999.94
2022-12-03T20:26:51.053Z,100000.56
2022-12-03T20:29:20.766Z,99997.53
2022-12-03T20:31:53.186Z,100004.13
2022-12-03T20:34:22.976Z,100013.38
2022-12-03T20:36:52.666Z,100002.25
2022-12-03T20:39:22.372Z,100006.94
2022-12-03T20:41:52.095Z,100005.19
2022-12-03T20:44:21.803Z,99999.41
2022-12-03T20:46:54.092Z,99999.75
2022-12-03T20:49:24.154Z,99991.38
2022-12-03T20:51:53.961Z,99998.19
2022-12-03T20:54:23.698Z,99994.97
2022-12-03T20:56:53.488Z,99983.84
2022-12-03T20:59:23.161Z,99994.47
2022-12-03T21:01:55.585Z,99990.31
2022-12-03T21:04:25.390Z,99988.00
2022-12-03T21:06:55.078Z,99992.22
2022-12-03T21:09:24.904Z,99993.66
2022-12-03T21:11:54.698Z,99999.34
2022-12-03T21:14:24.689Z,99999.56
2022-12-03T21:17:08.529Z,100000.22
2022-12-03T21:19:39.322Z,100001.84
2022-12-03T21:22:09.750Z,100000.22
2022-12-03T21:24:42.768Z,100004.59
2022-12-03T21:27:15.721Z,99999.59
2022-12-03T21:29:49.662Z,100001.09
2022-12-03T21:32:21.955Z,99993.00
2022-12-03T21:34:51.650Z,99991.16
2022-12-03T21:37:21.361Z,100000.09
2022-12-03T21:39:51.200Z,99998.47
2022-12-03T21:42:35.711Z,100000.81
2022-12-03T21:45:08.252Z,100009.25
2022-12-03T21:47:40.892Z,100001.47
2022-12-03T21:50:13.803Z,99994.94
2022-12-03T21:52:44.015Z,99994.84
2022-12-03T21:55:13.702Z,99997.13
2022-12-03T21:57:43.399Z,100008.31
2022-12-03T22:00:14.477Z,100002.31
2022-12-03T22:02:47.028Z,100005.22
2022-12-03T22:05:16.776Z,100010.25
2022-12-03T22:07:46.835Z,100010.09
2022-12-03T22:10:16.828Z,100004.41
2022-12-03T22:12:46.568Z,100003.44
2022-12-03T22:15:19.153Z,100006.19
2022-12-03T22:17:53.086Z,100003.94
2022-12-03T22:20:23.257Z,99999.94
2022-12-03T22:22:52.994Z,100002.28
2022-12-03T22:25:22.692Z,99992.78
2022-12-03T22:27:52.357Z,100001.59
2022-12-03T22:30:22.401Z,99998.19
2022-12-03T22:32:55.015Z,100004.28
2022-12-03T22:35:24.669Z,100001.75
2022-12-03T22:37:54.359Z,100004.25
2022-12-03T22:40:24.034Z,100011.38
2022-12-03T22:42:53.753Z,100005.13
2022-12-03T22:45:23.461Z,100003.16
2022-12-03T22:47:55.739Z,100002.81
2022-12-03T22:50:25.458Z,100005.13
2022-12-03T22:52:56.425Z,100000.81
2022-12-03T22:55:26.187Z,99993.53
2022-12-03T22:57:55.965Z,99997.03
2022-12-03T23:00:32.654Z,99982.34
2022-12-03T23:03:05.327Z,99981.94
2022-12-03T23:05:38.530Z,99986.00
2022-12-03T23:08:09.591Z,99979.22
2022-12-03T23:10:41.878Z,99984.97
2022-12-03T23:13:12.714Z,99972.75
2022-12-03T23:15:48.125Z,99971.19
2022-12-03T23:18:21.700Z,99968.63
2022-12-03T23:20:54.003Z,99973.03
2022-12-03T23:23:25.684Z,99972.97
2022-12-03T23:26:02.495Z,99973.44
2022-12-03T23:28:34.223Z,99969.50
2022-12-03T23:31:04.322Z,99969.00
2022-12-03T23:33:38.517Z,99960.63
2022-12-03T23:36:10.307Z,99958.50
2022-12-03T23:38:40.284Z,99959.59
2022-12-03T23:41:11.471Z,99958.66
2022-12-03T23:43:41.854Z,99950.34
2022-12-03T23:46:14.120Z,99951.69
2022-12-03T23:48:46.734Z,99956.31
2022-12-03T23:51:21.038Z,99953.41
2022-12-03T23:53:50.806Z,99955.88
2022-12-03T23:56:22.518Z,99951.88
2022-12-03T23:58:52.330Z,99958.09
